Time;durP1;ratioP1;P1;durP2;ratioP2;P2;SDS_P1;SDS_P2;PMS_P1;PMS_P2;Temp;Humidity;BMP_temperature;BMP_pressure;BME280_temperature;BME280_humidity;BME280_pressure;Samples;Min_cycle;Max_cycle;Signal;HPM_P1;HPM_P2
2023/09/02 00:01:33;;;;;;;7.90;3.38;;;;;;;14.05;100.00;96810.44;5061956;28;20069;-71
2023/09/02 00:04:01;;;;;;;9.30;4.75;;;;;;;13.92;100.00;96806.47;5059959;28;20040;-72
2023/09/02 00:06:26;;;;;;;6.50;4.35;;;;;;;13.81;100.00;96797.34;5059792;28;20549;-71
2023/09/02 00:08:52;;;;;;;9.70;4.15;;;;;;;13.72;100.00;96801.22;5061221;28;20162;-70
2023/09/02 00:11:17;;;;;;;8.05;3.97;;;;;;;13.66;100.00;96799.22;5058811;28;20048;-70
2023/09/02 00:13:42;;;;;;;6.45;3.53;;;;;;;13.56;100.00;96796.03;5048171;28;20194;-70
2023/09/02 00:16:08;;;;;;;6.97;4.05;;;;;;;13.50;100.00;96800.28;5035108;28;20047;-71
2023/09/02 00:18:33;;;;;;;9.27;3.10;;;;;;;13.58;100.00;96799.19;5066409;28;20059;-70
2023/09/02 00:20:58;;;;;;;8.05;3.47;;;;;;;13.76;100.00;96798.50;5065259;28;20064;-71
2023/09/02 00:23:24;;;;;;;5.50;3.33;;;;;;;13.89;100.00;96798.97;5060981;28;20596;-70
2023/09/02 00:25:49;;;;;;;5.07;3.30;;;;;;;14.01;100.00;96801.38;5064920;28;20041;-70
2023/09/02 00:28:14;;;;;;;5.50;3.08;;;;;;;14.10;100.00;96801.03;5059924;28;20047;-71
2023/09/02 00:30:40;;;;;;;4.15;3.15;;;;;;;14.17;100.00;96798.31;5062780;28;20559;-70
2023/09/02 00:33:05;;;;;;;6.53;3.47;;;;;;;14.24;100.00;96808.53;5059953;28;20131;-69
2023/09/02 00:35:32;;;;;;;6.78;3.10;;;;;;;14.25;100.00;96804.63;5064287;28;20393;-70
2023/09/02 00:37:58;;;;;;;7.55;3.25;;;;;;;14.21;100.00;96803.81;5065933;28;20127;-70
2023/09/02 00:40:26;;;;;;;4.53;3.50;;;;;;;14.03;100.00;96806.50;5060197;28;21123;-70
2023/09/02 00:42:54;;;;;;;5.85;3.30;;;;;;;13.88;100.00;96797.38;5064699;28;20037;-70
2023/09/02 00:45:21;;;;;;;4.78;3.40;;;;;;;13.85;100.00;96803.66;5060743;28;20401;-69
2023/09/02 00:47:50;;;;;;;5.88;2.92;;;;;;;13.88;100.00;96800.94;5065032;28;20137;-71
2023/09/02 00:50:15;;;;;;;5.10;3.10;;;;;;;13.97;100.00;96800.56;5059639;28;20393;-71
2023/09/02 00:52:41;;;;;;;5.72;3.05;;;;;;;13.99;100.00;96794.66;5065823;28;20136;-71
2023/09/02 00:55:07;;;;;;;4.07;3.03;;;;;;;14.00;100.00;96801.75;5064605;28;20112;-73
2023/09/02 00:57:33;;;;;;;5.55;3.17;;;;;;;14.05;100.00;96798.66;5085394;28;20031;-69
2023/09/02 01:00:00;;;;;;;5.90;2.90;;;;;;;14.15;100.00;96800.63;5065359;28;20489;-70
2023/09/02 01:02:26;;;;;;;5.03;3.42;;;;;;;14.15;100.00;96797.88;5059263;28;20044;-73
2023/09/02 01:04:52;;;;;;;4.93;3.10;;;;;;;14.20;100.00;96805.00;5064942;28;20127;-71
2023/09/02 01:07:18;;;;;;;5.72;3.63;;;;;;;14.13;100.00;96806.56;5059338;28;20569;-70
2023/09/02 01:09:43;;;;;;;7.45;3.45;;;;;;;14.09;100.00;96811.22;5072132;28;20044;-71
2023/09/02 01:12:10;;;;;;;8.90;3.35;;;;;;;14.05;100.00;96818.69;5077347;28;20132;-72
2023/09/02 01:14:35;;;;;;;5.70;3.40;;;;;;;13.96;100.00;96813.53;5084369;28;20055;-71
2023/09/02 01:17:01;;;;;;;6.35;3.40;;;;;;;14.05;100.00;96809.66;5068158;28;20052;-71
2023/09/02 01:19:27;;;;;;;5.25;3.22;;;;;;;13.97;100.00;96808.81;5059691;28;20474;-71
2023/09/02 01:22:26;;;;;;;6.10;3.40;;;;;;;13.86;100.00;96814.28;5064346;28;20044;-71
2023/09/02 01:25:10;;;;;;;8.98;3.20;;;;;;;13.67;100.00;96809.06;5063388;28;20536;-71
2023/09/02 01:27:46;;;;;;;8.77;3.45;;;;;;;13.66;100.00;96813.75;5062947;28;20135;-71
2023/09/02 01:30:27;;;;;;;6.03;3.13;;;;;;;13.62;100.00;96812.19;5058357;28;20048;-70
2023/09/02 01:32:55;;;;;;;8.45;3.80;;;;;;;13.58;100.00;96804.69;5063685;28;20036;-71
2023/09/02 01:35:27;;;;;;;8.38;3.58;;;;;;;13.49;100.00;96807.00;5058028;28;20121;-71
2023/09/02 01:37:55;;;;;;;5.80;3.97;;;;;;;13.34;100.00;96806.09;5063743;28;20443;-71
2023/09/02 01:40:25;;;;;;;5.28;3.28;;;;;;;13.28;100.00;96810.34;5060693;28;20131;-69
2023/09/02 01:42:51;;;;;;;5.38;3.90;;;;;;;13.25;100.00;96804.81;5064411;28;20075;-69
2023/09/02 01:45:19;;;;;;;5.55;3.85;;;;;;;13.17;100.00;96810.25;5069873;28;20069;-71
2023/09/02 01:47:45;;;;;;;9.65;4.03;;;;;;;13.22;100.00;96816.56;5075556;28;20036;-71
2023/09/02 01:50:15;;;;;;;7.47;4.07;;;;;;;13.22;100.00;96816.56;5061097;28;20669;-71
2023/09/02 01:52:42;;;;;;;7.10;4.55;;;;;;;13.19;100.00;96815.38;5065652;28;20047;-71
2023/09/02 01:55:09;;;;;;;10.65;4.72;;;;;;;13.13;100.00;96811.41;5052946;28;20044;-70
2023/09/02 01:57:34;;;;;;;9.80;4.50;;;;;;;13.11;100.00;96819.25;5066503;28;20082;-72
2023/09/02 01:59:59;;;;;;;9.13;4.63;;;;;;;13.10;100.00;96812.16;5052882;28;20041;-71
2023/09/02 02:02:25;;;;;;;6.88;3.67;;;;;;;13.14;100.00;96821.22;5045153;28;20045;-70
2023/09/02 02:04:55;;;;;;;10.68;5.05;;;;;;;13.20;100.00;96823.25;5060966;28;20083;-70
2023/09/02 02:07:25;;;;;;;8.95;4.25;;;;;;;13.25;100.00;96819.34;5046634;28;20385;-70
2023/09/02 02:09:55;;;;;;;6.07;3.92;;;;;;;13.29;100.00;96819.38;5065155;28;20047;-71
2023/09/02 02:12:22;;;;;;;5.88;3.97;;;;;;;13.46;100.00;96826.22;5058310;28;20542;-70
2023/09/02 02:14:47;;;;;;;6.45;3.88;;;;;;;13.52;100.00;96828.25;5062654;28;20090;-71
2023/09/02 02:17:13;;;;;;;7.70;3.53;;;;;;;13.68;100.00;96825.19;5059291;28;20044;-71
2023/09/02 02:19:39;;;;;;;7.07;3.67;;;;;;;13.87;100.00;96815.84;5062480;28;20045;-71
2023/09/02 02:22:05;;;;;;;6.32;3.33;;;;;;;13.86;100.00;96824.50;5059343;28;20198;-72
2023/09/02 02:24:30;;;;;;;4.57;3.10;;;;;;;13.79;100.00;96830.75;5046907;28;20049;-70
2023/09/02 02:26:56;;;;;;;5.25;2.88;;;;;;;13.78;100.00;96826.44;5062946;28;20040;-71
2023/09/02 02:29:21;;;;;;;11.75;3.28;;;;;;;13.72;100.00;96831.50;5036378;28;20587;-72
2023/09/02 02:31:47;;;;;;;7.43;4.05;;;;;;;13.74;100.00;96831.91;5062305;28;20041;-72
2023/09/02 02:34:12;;;;;;;11.55;3.67;;;;;;;13.76;100.00;96832.31;5057155;28;20056;-69
2023/09/02 02:36:37;;;;;;;8.00;3.80;;;;;;;13.77;100.00;96828.41;5062172;28;20041;-70
2023/09/02 02:39:06;;;;;;;6.78;3.88;;;;;;;13.77;100.00;96828.41;5059623;28;20037;-74
2023/09/02 02:41:32;;;;;;;6.75;3.70;;;;;;;13.73;100.00;96822.06;5062853;28;20044;-72
2023/09/02 02:43:59;;;;;;;5.93;3.63;;;;;;;13.76;100.00;96817.78;5063324;28;20362;-71
2023/09/02 02:46:25;;;;;;;6.97;4.00;;;;;;;13.80;100.00;96818.56;5056771;28;20048;-69
2023/09/02 02:48:50;;;;;;;5.55;3.38;;;;;;;13.75;100.00;96821.69;5063012;28;20040;-70
2023/09/02 02:51:16;;;;;;;9.82;4.05;;;;;;;13.63;100.00;96820.06;5055188;28;20059;-72
2023/09/02 02:53:41;;;;;;;7.13;3.42;;;;;;;13.47;100.00;96822.28;5062215;28;20048;-69
2023/09/02 02:56:06;;;;;;;7.75;3.55;;;;;;;13.38;100.00;96822.63;5039060;28;20409;-70
2023/09/02 02:58:32;;;;;;;6.28;3.60;;;;;;;13.38;100.00;96826.19;5061630;28;20105;-72
2023/09/02 03:01:05;;;;;;;6.63;3.72;;;;;;;13.41;100.00;96821.84;5063392;28;20143;-71
2023/09/02 03:03:31;;;;;;;5.43;3.90;;;;;;;13.44;100.00;96820.31;5062833;28;20043;-69
2023/09/02 03:06:00;;;;;;;9.60;3.35;;;;;;;13.44;100.00;96823.84;5063906;28;20052;-70
2023/09/02 03:08:26;;;;;;;6.10;3.70;;;;;;;13.29;100.00;96828.44;5059262;28;20113;-71
2023/09/02 03:11:00;;;;;;;5.68;3.58;;;;;;;13.11;100.00;96833.00;5076745;28;20631;-70
2023/09/02 03:13:25;;;;;;;6.20;3.95;;;;;;;13.05;100.00;96829.78;5061550;28;20045;-71
2023/09/02 03:15:56;;;;;;;7.45;3.63;;;;;;;13.10;100.00;96832.19;5062923;28;20047;-69
2023/09/02 03:18:22;;;;;;;8.30;3.83;;;;;;;13.21;100.00;96832.28;5055929;28;20127;-70
2023/09/02 03:20:47;;;;;;;6.88;3.20;;;;;;;13.29;100.00;96831.19;5062408;28;20047;-69
2023/09/02 03:23:14;;;;;;;5.65;3.85;;;;;;;13.41;100.00;96832.09;5056922;28;20041;-69
2023/09/02 03:25:39;;;;;;;7.07;3.88;;;;;;;13.42;100.00;96833.66;5061542;28;20041;-69
2023/09/02 03:28:05;;;;;;;8.88;3.88;;;;;;;13.45;100.00;96833.69;5038668;28;20047;-70
2023/09/02 03:30:31;;;;;;;4.65;3.13;;;;;;;13.41;100.00;96835.63;5062704;28;20055;-72
2023/09/02 03:32:56;;;;;;;6.38;3.67;;;;;;;13.38;100.00;96841.91;5061983;28;20036;-70
2023/09/02 03:35:22;;;;;;;6.78;2.88;;;;;;;13.29;100.00;96835.88;5057735;28;20459;-69
2023/09/02 03:37:47;;;;;;;6.68;4.00;;;;;;;13.23;100.00;96840.16;5062618;28;20050;-70
2023/09/02 03:40:13;;;;;;;4.45;3.22;;;;;;;13.12;100.00;96834.56;5056890;28;20042;-70
2023/09/02 03:42:38;;;;;;;6.35;3.45;;;;;;;13.11;100.00;96838.50;5061034;28;20108;-71
2023/09/02 03:45:04;;;;;;;5.18;3.60;;;;;;;13.12;100.00;96835.34;5058285;28;20102;-71
2023/09/02 03:47:31;;;;;;;8.63;3.55;;;;;;;13.12;100.00;96842.81;5047024;28;20044;-71
2023/09/02 03:49:56;;;;;;;7.30;3.67;;;;;;;13.05;100.00;96838.03;5065119;28;20040;-71
2023/09/02 03:52:22;;;;;;;4.97;3.47;;;;;;;13.15;100.00;96831.06;5060296;28;20940;-71
2023/09/02 03:54:47;;;;;;;6.88;4.03;;;;;;;13.16;100.00;96836.19;5063275;28;20052;-69
2023/09/02 03:57:13;;;;;;;5.28;3.58;;;;;;;13.04;100.00;96836.47;5059826;28;20044;-70
2023/09/02 03:59:38;;;;;;;7.07;3.83;;;;;;;13.10;100.00;96834.94;5065149;28;20037;-71
2023/09/02 04:02:03;;;;;;;6.72;3.92;;;;;;;13.16;100.00;96838.13;5061985;28;20044;-73
2023/09/02 04:04:29;;;;;;;8.70;3.70;;;;;;;13.17;100.00;96842.47;5063654;28;20041;-70
2023/09/02 04:06:54;;;;;;;7.60;3.88;;;;;;;13.12;100.00;96838.09;5065519;28;20044;-71
2023/09/02 04:09:20;;;;;;;7.15;3.97;;;;;;;13.11;100.00;96844.00;5059114;28;20560;-70
2023/09/02 04:11:45;;;;;;;10.88;3.88;;;;;;;13.14;100.00;96848.72;5066331;28;20054;-70
2023/09/02 04:14:11;;;;;;;6.00;3.90;;;;;;;13.19;100.00;96859.38;5043524;28;20080;-70
2023/09/02 04:16:36;;;;;;;8.30;3.97;;;;;;;13.19;100.00;96851.91;5070590;28;20071;-69
2023/09/02 04:19:05;;;;;;;7.15;3.33;;;;;;;13.15;100.00;96855.81;5049036;28;20460;-71
2023/09/02 04:21:31;;;;;;;6.82;3.88;;;;;;;13.11;100.00;96866.00;5065324;28;20040;-72
2023/09/02 04:23:56;;;;;;;5.45;3.63;;;;;;;13.03;100.00;96869.84;5064565;28;20519;-71
2023/09/02 04:26:22;;;;;;;8.57;3.67;;;;;;;12.98;100.00;96869.03;5042311;28;20496;-70
2023/09/02 04:28:48;;;;;;;9.00;4.13;;;;;;;12.94;100.00;96868.19;5065228;28;20128;-70
2023/09/02 04:31:14;;;;;;;7.00;3.60;;;;;;;12.96;100.00;96865.88;5041797;28;20036;-69
2023/09/02 04:33:39;;;;;;;6.97;3.83;;;;;;;12.95;100.00;96861.53;5046794;28;20067;-69
2023/09/02 04:36:05;;;;;;;4.63;3.05;;;;;;;12.96;100.00;96863.13;5060036;28;20040;-69
2023/09/02 04:38:31;;;;;;;6.55;3.40;;;;;;;12.93;100.00;96866.63;5068239;28;20079;-69
2023/09/02 04:40:56;;;;;;;6.15;3.40;;;;;;;12.90;100.00;96866.59;5065755;28;20039;-70
2023/09/02 04:43:23;;;;;;;6.97;3.13;;;;;;;12.89;100.00;96863.06;5061647;28;20096;-71
2023/09/02 04:45:48;;;;;;;5.63;3.42;;;;;;;12.89;100.00;96863.06;5065839;28;20529;-71
2023/09/02 04:48:15;;;;;;;12.40;3.50;;;;;;;12.98;100.00;96862.72;5057734;28;20136;-71
2023/09/02 04:50:41;;;;;;;6.05;3.47;;;;;;;13.05;100.00;96868.28;5064311;28;20459;-71
2023/09/02 04:53:07;;;;;;;6.57;4.00;;;;;;;13.09;100.00;96871.06;5049560;28;20182;-70
2023/09/02 04:55:33;;;;;;;7.30;3.65;;;;;;;13.13;100.00;96872.69;5052293;28;20048;-70
2023/09/02 04:57:59;;;;;;;6.93;3.72;;;;;;;13.23;100.00;96875.91;5063998;28;20512;-69
2023/09/02 05:00:25;;;;;;;7.15;3.50;;;;;;;13.30;100.00;96876.75;5060126;28;20221;-70
2023/09/02 05:02:51;;;;;;;8.07;3.80;;;;;;;13.35;100.00;96879.19;5066820;28;20108;-70
2023/09/02 05:05:17;;;;;;;6.78;3.75;;;;;;;13.38;100.00;96880.41;5063797;28;20108;-70
2023/09/02 05:07:43;;;;;;;8.75;3.30;;;;;;;13.41;100.00;96881.59;5068391;28;20459;-71
2023/09/02 05:10:09;;;;;;;6.00;3.80;;;;;;;13.39;100.00;96885.50;5062905;28;20072;-73
2023/09/02 05:12:35;;;;;;;6.50;3.45;;;;;;;13.43;100.00;96888.28;5060552;28;20040;-70
2023/09/02 05:15:00;;;;;;;8.68;3.45;;;;;;;13.59;100.00;96882.53;5064731;28;20049;-70
2023/09/02 05:17:26;;;;;;;6.32;3.33;;;;;;;14.28;100.00;96887.28;5040928;28;20051;-68
2023/09/02 05:19:52;;;;;;;8.48;3.35;;;;;;;15.22;100.00;96893.09;5063475;28;20041;-69
2023/09/02 05:22:17;;;;;;;6.40;2.92;;;;;;;16.35;100.00;96892.59;5057421;28;20047;-72
2023/09/02 05:24:43;;;;;;;4.75;2.30;;;;;;;17.43;100.00;96905.88;5075246;28;20040;-70
2023/09/02 05:27:08;;;;;;;4.57;2.20;;;;;;;18.40;100.00;96911.38;5065728;28;20040;-69
2023/09/02 05:29:33;;;;;;;5.68;2.40;;;;;;;19.26;100.00;96915.03;5063732;28;20051;-71
2023/09/02 05:31:59;;;;;;;5.95;2.38;;;;;;;19.96;95.63;96922.69;5066680;28;20063;-70
2023/09/02 05:34:24;;;;;;;4.97;2.20;;;;;;;20.75;89.79;96934.38;5064326;28;20331;-71
2023/09/02 05:36:50;;;;;;;5.00;2.20;;;;;;;21.41;82.01;96934.53;5067582;28;20044;-71
2023/09/02 05:39:15;;;;;;;6.75;2.78;;;;;;;22.08;76.85;96936.97;5063296;28;20561;-71
2023/09/02 05:41:40;;;;;;;5.60;2.33;;;;;;;22.56;73.78;96934.50;5064232;28;20040;-69
2023/09/02 05:44:06;;;;;;;3.80;1.92;;;;;;;23.17;69.21;96941.97;5058837;28;20588;-70
2023/09/02 05:46:31;;;;;;;6.28;2.17;;;;;;;23.46;67.00;96939.09;5064596;28;20037;-70
2023/09/02 05:48:56;;;;;;;4.75;2.55;;;;;;;21.82;75.74;96947.16;5044952;28;20043;-71
2023/09/02 05:51:22;;;;;;;4.50;1.80;;;;;;;22.16;83.10;96941.13;5058840;28;20159;-70
2023/09/02 05:53:47;;;;;;;4.32;2.03;;;;;;;22.97;73.77;96941.34;5062817;28;20052;-70
2023/09/02 05:56:13;;;;;;;4.35;1.88;;;;;;;23.42;67.93;96941.19;5058969;28;20040;-70
2023/09/02 05:58:38;;;;;;;7.65;2.80;;;;;;;23.71;62.99;96953.50;5045275;28;20048;-70
2023/09/02 06:01:04;;;;;;;4.55;2.17;;;;;;;24.09;61.79;96944.31;5059157;28;20041;-71
2023/09/02 06:03:30;;;;;;;6.57;2.03;;;;;;;23.65;66.08;96948.47;5062423;28;20048;-70
2023/09/02 06:05:55;;;;;;;4.57;2.00;;;;;;;23.85;64.73;96950.28;5062874;28;20423;-70
2023/09/02 06:08:21;;;;;;;7.82;2.35;;;;;;;23.27;64.80;96952.03;5057521;28;20075;-71
2023/09/02 06:10:59;;;;;;;5.60;2.33;;;;;;;23.03;68.32;96939.56;5063741;28;20048;-70
2023/09/02 06:13:25;;;;;;;4.60;1.70;;;;;;;24.24;65.48;96948.19;5058816;28;20456;-71
2023/09/02 06:15:50;;;;;;;4.95;2.25;;;;;;;24.55;63.87;96956.72;5063729;28;20040;-71
2023/09/02 06:18:15;;;;;;;5.25;2.47;;;;;;;24.75;60.50;96956.41;5038421;28;20094;-72
2023/09/02 06:20:41;;;;;;;3.17;2.13;;;;;;;24.87;60.93;96957.59;5063510;28;20513;-70
2023/09/02 06:23:06;;;;;;;4.20;2.30;;;;;;;24.90;59.02;96953.91;5059885;28;20036;-70
2023/09/02 06:25:32;;;;;;;6.85;2.17;;;;;;;25.06;60.56;96957.72;5046207;28;20137;-71
2023/09/02 06:27:57;;;;;;;3.38;2.03;;;;;;;24.29;62.63;96953.22;5045330;28;20089;-74
2023/09/02 06:30:23;;;;;;;5.43;2.00;;;;;;;24.47;62.39;96957.41;5059492;28;20395;-72
2023/09/02 06:32:48;;;;;;;3.60;2.03;;;;;;;22.37;74.86;96952.97;5080497;28;20040;-69
2023/09/02 06:35:15;;;;;;;5.00;2.20;;;;;;;20.98;90.56;96950.22;5059113;28;20039;-70
2023/09/02 06:37:43;;;;;;;5.57;2.60;;;;;;;21.42;91.18;96952.84;5063190;28;20496;-72
2023/09/02 06:40:10;;;;;;;4.53;2.20;;;;;;;21.51;87.02;96947.47;5039919;28;20059;-70
2023/09/02 06:42:35;;;;;;;5.47;2.20;;;;;;;;;;5063283;28;20057;-71
2023/09/02 06:45:01;;;;;;;3.85;2.08;;;;;;;22.49;83.18;96960.59;5058331;28;20087;-71
2023/09/02 06:47:26;;;;;;;6.00;2.80;;;;;;;22.67;78.76;96955.34;5057624;28;20385;-71
2023/09/02 06:49:51;;;;;;;7.43;2.47;;;;;;;22.43;83.25;96954.00;5045289;28;20033;-70
2023/09/02 06:52:17;;;;;;;5.88;2.60;;;;;;;21.71;81.42;96967.69;5057375;28;20098;-71
2023/09/02 06:54:42;;;;;;;6.78;2.70;;;;;;;20.65;83.84;96963.97;5062017;28;20047;-71
2023/09/02 06:57:08;;;;;;;6.93;2.70;;;;;;;20.93;88.99;96975.78;5039489;28;20051;-70
2023/09/02 06:59:34;;;;;;;4.85;2.65;;;;;;;21.86;84.82;96972.94;5062406;28;20048;-71
2023/09/02 07:01:59;;;;;;;5.63;2.40;;;;;;;22.93;73.18;96974.97;5062116;28;20768;-71
2023/09/02 07:04:25;;;;;;;5.53;2.85;;;;;;;21.29;81.32;96986.94;5056319;28;20052;-72
2023/09/02 07:06:50;;;;;;;6.68;2.70;;;;;;;22.66;78.08;96990.06;5062774;28;20267;-71
2023/09/02 07:09:16;;;;;;;5.97;2.60;;;;;;;20.78;86.62;96986.41;5042993;28;20124;-71
2023/09/02 07:11:41;;;;;;;6.70;3.83;;;;;;;22.44;79.76;96989.84;5042341;28;20037;-71
2023/09/02 07:14:06;;;;;;;3.63;2.20;;;;;;;23.69;72.22;96989.53;5037969;28;20077;-72
2023/09/02 07:16:32;;;;;;;4.28;2.53;;;;;;;21.73;75.67;96986.78;5042640;28;20186;-71
2023/09/02 07:18:58;;;;;;;7.72;2.75;;;;;;;21.68;83.94;96993.69;5043374;28;20033;-71
2023/09/02 07:21:24;;;;;;;6.60;2.50;;;;;;;22.89;77.06;96991.81;5036581;28;20136;-72
2023/09/02 07:23:51;;;;;;;3.63;2.00;;;;;;;24.71;67.33;97003.38;5042666;28;20064;-70
2023/09/02 07:26:17;;;;;;;4.75;2.60;;;;;;;24.09;68.22;97003.06;5035394;28;20129;-70
2023/09/02 07:28:42;;;;;;;3.97;2.22;;;;;;;24.97;64.37;97008.88;5040408;28;20139;-72
2023/09/02 07:31:09;;;;;;;4.55;2.15;;;;;;;22.78;71.33;97008.09;5036748;28;20044;-72
2023/09/02 07:33:34;;;;;;;6.25;2.85;;;;;;;21.66;81.50;96992.53;5045447;28;20060;-70
2023/09/02 07:36:11;;;;;;;4.95;2.42;;;;;;;21.46;83.76;96990.56;5040805;28;20131;-72
2023/09/02 07:38:37;;;;;;;5.35;2.53;;;;;;;22.77;76.66;96997.34;5056620;28;20036;-70
2023/09/02 07:41:03;;;;;;;4.35;2.55;;;;;;;23.20;74.41;97005.34;5075049;28;20079;-70
2023/09/02 07:43:29;;;;;;;3.80;2.33;;;;;;;24.05;69.66;97003.94;5041389;28;20068;-70
2023/09/02 07:45:55;;;;;;;2.95;2.05;;;;;;;24.95;66.45;97012.13;5061993;28;20048;-71
2023/09/02 07:48:20;;;;;;;5.95;2.35;;;;;;;26.69;57.14;97023.84;5056565;28;20045;-72
2023/09/02 07:50:45;;;;;;;5.75;2.67;;;;;;;23.65;66.25;97015.56;5061598;28;20053;-72
2023/09/02 07:53:13;;;;;;;8.85;2.50;;;;;;;23.43;70.70;97009.06;5039002;28;20055;-71
2023/09/02 07:55:38;;;;;;;4.38;2.30;;;;;;;23.99;70.86;97018.97;5062286;28;20041;-72
2023/09/02 07:58:04;;;;;;;3.50;2.50;;;;;;;23.78;68.22;97017.59;5043834;28;20043;-69
2023/09/02 08:00:30;;;;;;;5.72;2.45;;;;;;;26.12;60.40;97035.41;5070039;28;20044;-72
2023/09/02 08:02:57;;;;;;;6.10;3.15;;;;;;;22.11;77.03;97039.25;5080928;28;20036;-71
2023/09/02 08:05:23;;;;;;;5.55;2.72;;;;;;;23.55;73.75;97024.28;5057937;28;20729;-71
2023/09/02 08:07:48;;;;;;;4.45;2.30;;;;;;;25.86;64.03;97034.81;5059387;28;20849;-71
2023/09/02 08:10:14;;;;;;;6.65;3.00;;;;;;;23.33;72.67;97018.56;5056026;28;20139;-71
2023/09/02 08:12:39;;;;;;;5.22;2.67;;;;;;;24.04;75.04;97021.97;5062712;28;20051;-72
2023/09/02 08:15:05;;;;;;;4.07;2.33;;;;;;;26.37;61.88;97034.38;5056145;28;20036;-71
2023/09/02 08:17:36;;;;;;;8.50;3.30;;;;;;;27.56;56.37;97040.50;5061355;28;20508;-69
2023/09/02 08:20:02;;;;;;;3.92;2.45;;;;;;;28.83;50.51;97050.09;5062204;28;20037;-71
2023/09/02 08:22:28;;;;;;;7.22;2.88;;;;;;;29.87;50.05;97048.25;5038089;28;20064;-70
2023/09/02 08:24:55;;;;;;;5.93;2.63;;;;;;;30.05;48.35;97058.53;5061752;28;20087;-71
2023/09/02 08:27:20;;;;;;;10.85;3.15;;;;;;;29.71;47.07;97055.13;5056398;28;20182;-71
2023/09/02 08:29:46;;;;;;;5.68;3.15;;;;;;;27.67;50.52;97046.41;5061882;28;20136;-71
2023/09/02 08:32:11;;;;;;;5.07;3.10;;;;;;;26.81;55.02;97038.97;5057473;28;20048;-71
2023/09/02 08:34:36;;;;;;;5.32;2.92;;;;;;;27.66;53.85;97044.88;5064486;28;20473;-70
2023/09/02 08:37:03;;;;;;;4.97;3.00;;;;;;;28.17;51.96;97044.06;5063821;28;20040;-70
2023/09/02 08:39:28;;;;;;;6.13;2.90;;;;;;;29.58;48.93;97046.16;5063807;28;20118;-71
2023/09/02 08:41:54;;;;;;;7.45;3.08;;;;;;;27.25;54.96;97038.66;5069167;28;20044;-71
2023/09/02 08:44:22;;;;;;;5.50;2.90;;;;;;;28.97;51.09;97044.53;5065939;28;20131;-70
2023/09/02 08:46:51;;;;;;;5.90;2.72;;;;;;;29.35;49.96;97048.59;5085070;28;20036;-69
2023/09/02 08:49:17;;;;;;;;;;;;;;;30.19;47.14;97053.34;5042847;28;20075;-71
2023/09/02 08:51:43;;;;;;;9.57;3.78;;;;;;;29.50;48.72;97047.84;5048196;28;19930;-70
2023/09/02 08:54:11;;;;;;;6.07;3.00;;;;;;;29.54;49.09;97048.41;5058101;28;20083;-72
2023/09/02 08:56:41;;;;;;;6.03;2.50;;;;;;;29.40;49.44;97052.00;5045672;28;20389;-72
2023/09/02 08:59:08;;;;;;;5.07;2.67;;;;;;;30.98;46.49;97062.94;5060494;28;20170;-72
2023/09/02 09:01:35;;;;;;;4.78;2.33;;;;;;;31.97;43.10;97066.53;5063309;28;20102;-69
2023/09/02 09:04:02;;;;;;;7.35;2.90;;;;;;;31.44;44.36;97065.78;5045748;28;20083;-71
2023/09/02 09:06:28;;;;;;;7.18;2.78;;;;;;;31.70;44.35;97069.91;5058618;28;20036;-70
2023/09/02 09:08:55;;;;;;;6.53;2.97;;;;;;;31.33;44.91;97065.66;5064128;28;20105;-71
2023/09/02 09:11:22;;;;;;;6.57;3.08;;;;;;;32.32;42.82;97064.75;5059774;28;20048;-68
2023/09/02 09:13:49;;;;;;;5.80;2.88;;;;;;;32.21;43.54;97065.44;5063001;28;20070;-71
2023/09/02 09:16:23;;;;;;;5.82;2.78;;;;;;;30.78;46.15;97058.81;5059949;28;20392;-70
2023/09/02 09:18:49;;;;;;;5.65;2.90;;;;;;;30.62;47.94;97057.31;5046597;28;20040;-69
2023/09/02 09:21:15;;;;;;;6.65;3.40;;;;;;;30.13;48.62;97058.13;5056652;28;20404;-70
2023/09/02 09:23:40;;;;;;;5.18;3.60;;;;;;;29.62;49.44;97051.63;5064284;28;20045;-71
2023/09/02 09:26:07;;;;;;;6.22;3.70;;;;;;;29.04;51.45;97049.00;5059403;28;20044;-70
2023/09/02 09:28:52;;;;;;;5.68;3.78;;;;;;;28.53;53.55;97047.16;5064194;28;20102;-71
2023/09/02 09:31:19;;;;;;;5.93;3.58;;;;;;;27.59;56.91;97045.19;5060329;28;20040;-71
2023/09/02 09:33:55;;;;;;;5.95;3.90;;;;;;;28.43;55.85;97043.59;5045556;28;20050;-71
2023/09/02 09:36:24;;;;;;;6.40;3.80;;;;;;;28.55;55.07;97053.13;5059351;28;20497;-72
2023/09/02 09:38:53;;;;;;;5.68;3.55;;;;;;;28.54;54.39;97052.34;5063507;28;20367;-69
2023/09/02 09:41:19;;;;;;;;;;;;;;;28.28;54.36;97046.34;5058845;28;20437;-72
2023/09/02 09:43:44;;;;;;;7.57;4.35;;;;;;;28.44;54.63;97052.84;5061975;28;19919;-72
2023/09/02 09:46:16;;;;;;;6.05;3.85;;;;;;;28.55;53.94;97047.47;5059175;28;20036;-72
2023/09/02 09:48:47;;;;;;;6.13;4.30;;;;;;;28.71;53.47;97055.50;5063678;28;20047;-71
2023/09/02 09:51:23;;;;;;;6.05;4.22;;;;;;;28.54;53.93;97048.72;5067273;28;20082;-69
2023/09/02 09:53:49;;;;;;;6.63;3.50;;;;;;;28.12;54.89;97053.16;5075612;28;20041;-72
2023/09/02 09:56:14;;;;;;;7.13;4.43;;;;;;;28.36;55.07;97053.22;5058781;28;20209;-71
2023/09/02 09:58:40;;;;;;;6.68;4.32;;;;;;;27.84;55.25;97052.47;5045188;28;20036;-71
2023/09/02 10:01:08;;;;;;;5.85;3.97;;;;;;;28.47;53.36;97057.50;5058730;28;20127;-71
2023/09/02 10:03:34;;;;;;;6.15;4.20;;;;;;;28.87;51.79;97051.50;5062734;28;20055;-71
2023/09/02 10:06:00;;;;;;;7.25;3.53;;;;;;;29.64;49.22;97055.53;5055421;28;20131;-72
2023/09/02 10:08:25;;;;;;;9.02;3.60;;;;;;;28.83;50.51;97050.91;5040310;28;20102;-72
2023/09/02 10:10:51;;;;;;;4.80;3.20;;;;;;;29.06;50.79;97051.34;5062832;28;20045;-70
2023/09/02 10:13:18;;;;;;;7.05;3.45;;;;;;;30.09;48.60;97056.28;5056823;28;20032;-71
2023/09/02 10:15:46;;;;;;;4.47;3.38;;;;;;;28.34;52.79;97046.47;5062965;28;20082;-70
2023/09/02 10:18:12;;;;;;;7.65;3.25;;;;;;;29.88;49.38;97046.19;5058749;28;20099;-71
2023/09/02 10:20:38;;;;;;;5.28;3.00;;;;;;;30.07;49.01;97047.53;5066114;28;20036;-70
2023/09/02 10:23:10;;;;;;;5.22;3.17;;;;;;;29.77;48.94;97048.84;5060523;28;20040;-70
2023/09/02 10:25:48;;;;;;;8.93;3.08;;;;;;;29.89;49.63;97047.72;5064960;28;20543;-69
2023/09/02 10:28:23;;;;;;;5.45;2.60;;;;;;;31.00;45.64;97052.69;5040470;28;20051;-71
2023/09/02 10:30:51;;;;;;;5.75;2.80;;;;;;;28.71;49.84;97041.41;5062561;28;20528;-71
2023/09/02 10:34:01;;;;;;;5.32;2.85;;;;;;;29.73;49.01;97035.66;5057772;28;20056;-72
2023/09/02 10:36:28;;;;;;;6.57;2.67;;;;;;;29.80;49.25;97040.16;5001707;28;20628;-70
2023/09/02 10:38:58;;;;;;;4.57;2.90;;;;;;;30.76;46.70;97044.41;5061307;28;20048;-72
2023/09/02 10:41:25;;;;;;;7.32;2.88;;;;;;;30.79;46.25;97043.41;5057505;28;20548;-71
2023/09/02 10:43:53;;;;;;;5.95;3.00;;;;;;;29.69;48.12;97040.72;5062039;28;20044;-70
2023/09/02 10:46:19;;;;;;;4.85;2.55;;;;;;;29.20;51.34;97027.28;5039727;28;20520;-71
2023/09/02 10:48:46;;;;;;;4.45;2.50;;;;;;;30.06;48.73;97025.41;5063014;28;20048;-72
2023/09/02 10:51:12;;;;;;;4.20;2.85;;;;;;;29.35;51.07;97020.41;5038324;28;20063;-71
2023/09/02 10:53:50;;;;;;;6.30;2.55;;;;;;;29.82;49.64;97023.53;5063988;28;20100;-72
2023/09/02 10:56:25;;;;;;;6.88;3.03;;;;;;;30.06;48.04;97028.25;5069266;28;20044;-70
2023/09/02 10:58:51;;;;;;;4.70;2.75;;;;;;;30.35;47.56;97030.22;5082366;28;20044;-70
2023/09/02 11:01:16;;;;;;;7.55;2.90;;;;;;;30.16;48.78;97029.69;5062569;28;20060;-71
2023/09/02 11:03:46;;;;;;;6.40;2.72;;;;;;;29.24;50.36;97020.16;5065713;28;20094;-70
2023/09/02 11:06:14;;;;;;;5.20;2.80;;;;;;;29.55;50.09;97016.13;5057645;28;20047;-70
2023/09/02 11:08:49;;;;;;;6.28;3.10;;;;;;;29.18;50.61;97019.31;5062961;28;20048;-69
2023/09/02 11:11:18;;;;;;;6.50;3.20;;;;;;;28.51;53.68;97001.78;5040483;28;20036;-71
2023/09/02 11:14:02;;;;;;;;;;;;;;;28.49;54.91;97007.13;5061813;28;20497;-71
2023/09/02 11:16:27;;;;;;;5.35;2.70;;;;;;;28.70;54.14;97006.06;5021397;28;20421;-71
2023/09/02 11:18:53;;;;;;;4.47;2.88;;;;;;;28.68;53.31;97004.97;5034037;28;20068;-71
2023/09/02 11:21:43;;;;;;;8.15;2.80;;;;;;;28.90;52.94;97010.28;5052294;28;20036;-70
2023/09/02 11:24:16;;;;;;;4.95;2.75;;;;;;;28.81;53.85;97001.88;5036291;28;20033;-71
2023/09/02 11:26:53;;;;;;;4.97;2.80;;;;;;;28.37;56.04;97000.47;5040755;28;20081;-70
2023/09/02 11:29:28;;;;;;;4.72;2.67;;;;;;;27.82;58.73;96987.41;5037042;28;20098;-71
2023/09/02 11:32:04;;;;;;;4.20;2.42;;;;;;;28.46;56.76;96991.19;5041494;28;20063;-70